Pagrindinis puslapis
METAR-TAF:

METAR-TAF

Oro uostai :

North Perry Airport

Hollywood, Florida, Jungtinės Amerikos Valstijos

platuma: 25-59-56N, ilguma: 080-14-28W, Aukštis: 2 m

Dabartinis oras

Ataskaita buvo paskelbta 11 minutes, ne 20:53 UTC
Vėjas 12 kt iš Šiaurės Rytų su gūsio iki 21 kt
Temperatūra 22°C
Drėgmė 53%
Slėgis 1022 hPa
Matomumas: 16.1 km
Giedras dangus

METAR: KHWO 022053Z 04012G21KT 10SM CLR 22/12 A3018 RMK AO2 SLP219 T02220122 55012

Laikas: 16:04 (21:04 UTC)


TAF: trūkstamas

Orai ataskaitas ir orų prognozės (METAR, TAF).

turimą stotys yra geltonos ir raudonos taškus žemėlapyje.

Perkelti pele per norėdami pamatyti stoties vardą.

Tada spustelėkite, norėdami matyti oro stebėjimo ir prognozės.

Norėdami pakeisti žemėlapį: spustelėkite ant žalios mygtukų su juodo kryžiaus žemyn,; žalią mygtuką su brūkšneliu, jei norite nutolinti; arba žalių rodyklių gretimoms žemėlapius.


METAR-TAF: